sensor_id;sensor_type;location;lat;lon;timestamp;P1;P2;P0
74436;PMS7003;62868;52.360;30.424;2023-11-18T00:01:08;0.7;0;0
74436;PMS7003;62868;52.360;30.424;2023-11-18T00:06:08;0;0;0
74436;PMS7003;62868;52.360;30.424;2023-11-18T00:10:58;0;0;0
74436;PMS7003;62868;52.360;30.424;2023-11-18T00:16:08;0.3;0;0
74436;PMS7003;62868;52.360;30.424;2023-11-18T00:20:52;0.7;0;0
74436;PMS7003;62868;52.360;30.424;2023-11-18T00:25:58;0.3;0;0
74436;PMS7003;62868;52.360;30.424;2023-11-18T00:30:42;0.7;0;0
74436;PMS7003;62868;52.360;30.424;2023-11-18T00:35:34;0.7;0;0
74436;PMS7003;62868;52.360;30.424;2023-11-18T00:40:32;0.3;0;0
74436;PMS7003;62868;52.360;30.424;2023-11-18T00:45:42;0.5;0;0
74436;PMS7003;62868;52.360;30.424;2023-11-18T00:51:08;0.3;0.3;0
74436;PMS7003;62868;52.360;30.424;2023-11-18T00:56:08;1.7;0;0
74436;PMS7003;62868;52.360;30.424;2023-11-18T01:00:54;0.5;0.3;0
74436;PMS7003;62868;52.360;30.424;2023-11-18T01:06:08;0.3;0.3;0
74436;PMS7003;62868;52.360;30.424;2023-11-18T01:10:50;0.7;0.3;0
74436;PMS7003;62868;52.360;30.424;2023-11-18T01:15:56;0.7;0.3;0
74436;PMS7003;62868;52.360;30.424;2023-11-18T01:20:44;1;0;0
74436;PMS7003;62868;52.360;30.424;2023-11-18T01:25:48;0;0;0
74436;PMS7003;62868;52.360;30.424;2023-11-18T01:30:32;0;0;0
74436;PMS7003;62868;52.360;30.424;2023-11-18T01:35:32;0.3;0.3;0.3
74436;PMS7003;62868;52.360;30.424;2023-11-18T01:41:08;1.3;0.5;0.3
74436;PMS7003;62868;52.360;30.424;2023-11-18T01:46:10;0.7;0.7;0.3
74436;PMS7003;62868;52.360;30.424;2023-11-18T01:50:58;1;0.3;0
74436;PMS7003;62868;52.360;30.424;2023-11-18T01:56:10;1;0.3;0
74436;PMS7003;62868;52.360;30.424;2023-11-18T02:00:52;0.5;0.3;0
74436;PMS7003;62868;52.360;30.424;2023-11-18T02:05:58;0.7;0.7;0.3
74436;PMS7003;62868;52.360;30.424;2023-11-18T02:10:32;1;0.7;0
74436;PMS7003;62868;52.360;30.424;2023-11-18T02:15:51;1;0.3;0.3
74436;PMS7003;62868;52.360;30.424;2023-11-18T02:20:44;1;0;0
74436;PMS7003;62868;52.360;30.424;2023-11-18T02:25:44;1.3;0.7;0.3
74436;PMS7003;62868;52.360;30.424;2023-11-18T02:31:09;1;0.7;0.3
74436;PMS7003;62868;52.360;30.424;2023-11-18T02:35:31;0;0;0
74436;PMS7003;62868;52.360;30.424;2023-11-18T02:41:11;1.5;0.8;0.5
74436;PMS7003;62868;52.360;30.424;2023-11-18T02:46:10;1;0.3;0
74436;PMS7003;62868;52.360;30.424;2023-11-18T02:50:32;0.3;0.3;0.3
74436;PMS7003;62868;52.360;30.424;2023-11-18T02:56:10;2.3;1;0.5
74436;PMS7003;62868;52.360;30.424;2023-11-18T03:00:32;1;1;0.3
74436;PMS7003;62868;52.360;30.424;2023-11-18T03:05:34;1;0.3;0
74436;PMS7003;62868;52.360;30.424;2023-11-18T03:10:32;0.7;0;0
74436;PMS7003;62868;52.360;30.424;2023-11-18T03:15:34;0.8;0.8;0.5
74436;PMS7003;62868;52.360;30.424;2023-11-18T03:20:50;0.3;0.3;0.3
74436;PMS7003;62868;52.360;30.424;2023-11-18T03:25:50;1;0.7;0.7
74436;PMS7003;62868;52.360;30.424;2023-11-18T03:31:10;0.7;0.3;0
74436;PMS7003;62868;52.360;30.424;2023-11-18T03:36:10;2.8;0.8;0.3
74436;PMS7003;62868;52.360;30.424;2023-11-18T03:40:32;1.3;0.3;0
74436;PMS7003;62868;52.360;30.424;2023-11-18T03:46:10;1;0.7;0
74436;PMS7003;62868;52.360;30.424;2023-11-18T03:50:34;2.3;1;0.7
74436;PMS7003;62868;52.360;30.424;2023-11-18T03:55:34;1.3;0.8;0
74436;PMS7003;62868;52.360;30.424;2023-11-18T04:00:40;0.3;0.3;0.3
74436;PMS7003;62868;52.360;30.424;2023-11-18T04:05:42;2;1.3;0.7
74436;PMS7003;62868;52.360;30.424;2023-11-18T04:10:50;1;0.3;0.3
74436;PMS7003;62868;52.360;30.424;2023-11-18T04:15:48;1.8;0.8;0.5
74436;PMS7003;62868;52.360;30.424;2023-11-18T04:21:06;1.3;0.7;0.3
74436;PMS7003;62868;52.360;30.424;2023-11-18T04:26:10;1.7;0.7;0.7
74436;PMS7003;62868;52.360;30.424;2023-11-18T04:30:52;2;1;0.7
74436;PMS7003;62868;52.360;30.424;2023-11-18T04:36:09;1;0.5;0
74436;PMS7003;62868;52.360;30.424;2023-11-18T04:40:34;1.3;0.7;0.3
74436;PMS7003;62868;52.360;30.424;2023-11-18T04:45:58;1.7;1.3;1
74436;PMS7003;62868;52.360;30.424;2023-11-18T04:50:50;3.3;1.3;0.3
74436;PMS7003;62868;52.360;30.424;2023-11-18T04:55:42;3;1.3;1
74436;PMS7003;62868;52.360;30.424;2023-11-18T05:00:48;2.3;1.3;0.7
74436;PMS7003;62868;52.360;30.424;2023-11-18T05:05:42;1;0.7;0.3
74436;PMS7003;62868;52.360;30.424;2023-11-18T05:11:10;0.8;0.5;0
74436;PMS7003;62868;52.360;30.424;2023-11-18T05:16:10;1.7;1;0.7
74436;PMS7003;62868;52.360;30.424;2023-11-18T05:20:58;1;0.7;0.3
74436;PMS7003;62868;52.360;30.424;2023-11-18T05:26:10;3.3;1.7;0.7
74436;PMS7003;62868;52.360;30.424;2023-11-18T05:30:34;1.5;1;1
74436;PMS7003;62868;52.360;30.424;2023-11-18T05:35:32;2;1.3;0.7
74436;PMS7003;62868;52.360;30.424;2023-11-18T05:40:38;2.3;1.3;1
74436;PMS7003;62868;52.360;30.424;2023-11-18T05:45:44;1.3;0.7;0.3
74436;PMS7003;62868;52.360;30.424;2023-11-18T05:50:50;2.5;1;0.5
74436;PMS7003;62868;52.360;30.424;2023-11-18T05:55:50;1.7;1.7;1
74436;PMS7003;62868;52.360;30.424;2023-11-18T06:01:10;1.7;0.3;0
74436;PMS7003;62868;52.360;30.424;2023-11-18T06:06:11;2.3;1;0.3
74436;PMS7003;62868;52.360;30.424;2023-11-18T06:10:32;0.8;0.5;0.3
74436;PMS7003;62868;52.360;30.424;2023-11-18T06:15:42;1.7;0.7;0.3
74436;PMS7003;62868;52.360;30.424;2023-11-18T06:20:33;2;0.7;0.3
74436;PMS7003;62868;52.360;30.424;2023-11-18T06:25:50;2.7;1.7;1
74436;PMS7003;62868;52.360;30.424;2023-11-18T06:31:08;1.5;1;0.8
74436;PMS7003;62868;52.360;30.424;2023-11-18T06:35:40;2.3;1.3;1
74436;PMS7003;62868;52.360;30.424;2023-11-18T06:40:54;1.7;1.7;1
74436;PMS7003;62868;52.360;30.424;2023-11-18T06:45:50;2.8;1.5;1.3
74436;PMS7003;62868;52.360;30.424;2023-11-18T06:51:10;4.7;3.3;2.3
74436;PMS7003;62868;52.360;30.424;2023-11-18T06:56:10;3;1.7;1
74436;PMS7003;62868;52.360;30.424;2023-11-18T07:00:52;3.7;1.3;1.3
74436;PMS7003;62868;52.360;30.424;2023-11-18T07:06:08;6;4;2.3
74436;PMS7003;62868;52.360;30.424;2023-11-18T07:10:32;13.3;11;8.3
74436;PMS7003;62868;52.360;30.424;2023-11-18T07:15:48;13.7;12.7;8
74436;PMS7003;62868;52.360;30.424;2023-11-18T07:21:08;10.7;9.7;5.7
74436;PMS7003;62868;52.360;30.424;2023-11-18T07:25:44;5.5;4.5;2.5
74436;PMS7003;62868;52.360;30.424;2023-11-18T07:30:48;9.7;7.7;4.7
74436;PMS7003;62868;52.360;30.424;2023-11-18T07:35:50;11.7;7.3;6.3
74436;PMS7003;62868;52.360;30.424;2023-11-18T07:41:10;7.7;5.7;3.3
74436;PMS7003;62868;52.360;30.424;2023-11-18T07:46:10;4;2.3;1.5
74436;PMS7003;62868;52.360;30.424;2023-11-18T07:50:39;4.7;3;1.3
74436;PMS7003;62868;52.360;30.424;2023-11-18T07:56:10;2.7;2.3;1.3
74436;PMS7003;62868;52.360;30.424;2023-11-18T08:00:34;4.3;3.7;1.7
74436;PMS7003;62868;52.360;30.424;2023-11-18T08:05:34;5.5;4;2
74436;PMS7003;62868;52.360;30.424;2023-11-18T08:10:48;8.7;5.3;4
74436;PMS7003;62868;52.360;30.424;2023-11-18T08:15:44;5.3;4.3;2.7
74436;PMS7003;62868;52.360;30.424;2023-11-18T08:21:10;5;4.3;2.7
74436;PMS7003;62868;52.360;30.424;2023-11-18T08:25:48;3.8;2.8;2.3
74436;PMS7003;62868;52.360;30.424;2023-11-18T08:31:12;5.3;4.7;2.7
74436;PMS7003;62868;52.360;30.424;2023-11-18T08:36:10;7;4;2.3
74436;PMS7003;62868;52.360;30.424;2023-11-18T08:40:32;7;4.8;3
74436;PMS7003;62868;52.360;30.424;2023-11-18T08:46:00;5.7;4.3;3.3
74436;PMS7003;62868;52.360;30.424;2023-11-18T08:50:42;5;2.7;1.3
74436;PMS7003;62868;52.360;30.424;2023-11-18T08:55:32;4.3;3.3;2.7
74436;PMS7003;62868;52.360;30.424;2023-11-18T09:00:49;4.5;2.8;1.8
74436;PMS7003;62868;52.360;30.424;2023-11-18T09:05:40;5;3.3;1.7
74436;PMS7003;62868;52.360;30.424;2023-11-18T09:10:50;3.3;2;1.3
74436;PMS7003;62868;52.360;30.424;2023-11-18T09:15:50;2.7;2;1.7
74436;PMS7003;62868;52.360;30.424;2023-11-18T09:21:10;6.8;5.8;3
74436;PMS7003;62868;52.360;30.424;2023-11-18T09:26:10;5.3;5;2.7
74436;PMS7003;62868;52.360;30.424;2023-11-18T09:30:32;5.3;4;3.3
74436;PMS7003;62868;52.360;30.424;2023-11-18T09:36:11;9.7;9;5.7
74436;PMS7003;62868;52.360;30.424;2023-11-18T09:40:32;10;9;5.8
74436;PMS7003;62868;52.360;30.424;2023-11-18T09:45:56;8.7;7.3;5.3
74436;PMS7003;62868;52.360;30.424;2023-11-18T09:50:43;7.3;5.7;4
74436;PMS7003;62868;52.360;30.424;2023-11-18T09:55:45;4.7;4;2
74436;PMS7003;62868;52.360;30.424;2023-11-18T10:00:48;4.5;3.8;3
74436;PMS7003;62868;52.360;30.424;2023-11-18T10:05:50;6.7;4.7;3.3
74436;PMS7003;62868;52.360;30.424;2023-11-18T10:11:11;2.7;2.3;2.3
74436;PMS7003;62868;52.360;30.424;2023-11-18T10:16:10;4.3;2.7;2
74436;PMS7003;62868;52.360;30.424;2023-11-18T10:20:52;4.3;3.3;2.8
74436;PMS7003;62868;52.360;30.424;2023-11-18T10:26:08;6;5.3;4.7
74436;PMS7003;62868;52.360;30.424;2023-11-18T10:30:42;8.7;6.3;4.3
74436;PMS7003;62868;52.360;30.424;2023-11-18T10:35:32;8;7.3;4.8
74436;PMS7003;62868;52.360;30.424;2023-11-18T10:40:52;6.3;6;4
74436;PMS7003;62868;52.360;30.424;2023-11-18T10:45:32;9.3;7.7;5
74436;PMS7003;62868;52.360;30.424;2023-11-18T10:50:50;5.7;5;3.7
74436;PMS7003;62868;52.360;30.424;2023-11-18T10:55:48;7.5;4.5;4.3
74436;PMS7003;62868;52.360;30.424;2023-11-18T11:01:10;8.3;6.3;4.7
74436;PMS7003;62868;52.360;30.424;2023-11-18T11:06:15;5.7;4.3;3
74436;PMS7003;62868;52.360;30.424;2023-11-18T11:10:52;7.3;5.7;4.3
74436;PMS7003;62868;52.360;30.424;2023-11-18T11:16:10;6;5.8;3.3
74436;PMS7003;62868;52.360;30.424;2023-11-18T11:21:04;4.3;2.7;2
74436;PMS7003;62868;52.360;30.424;2023-11-18T11:25:55;7;4.3;3
74436;PMS7003;62868;52.360;30.424;2023-11-18T11:31:12;3.3;2.3;1.7
74436;PMS7003;62868;52.360;30.424;2023-11-18T11:35:46;10.8;9.8;6.8
74436;PMS7003;62868;52.360;30.424;2023-11-18T11:40:48;25;20.3;14.7
74436;PMS7003;62868;52.360;30.424;2023-11-18T11:45:49;33;28.7;18.3
74436;PMS7003;62868;52.360;30.424;2023-11-18T11:51:13;47;35.3;21.7
74436;PMS7003;62868;52.360;30.424;2023-11-18T11:56:10;19;16;10.8
74436;PMS7003;62868;52.360;30.424;2023-11-18T12:01:01;13;10.7;7
74436;PMS7003;62868;52.360;30.424;2023-11-18T12:05:32;8.7;8;6
74436;PMS7003;62868;52.360;30.424;2023-11-18T12:10:34;7.3;6.3;4
74436;PMS7003;62868;52.360;30.424;2023-11-18T12:15:47;7.5;5.3;3.3
74436;PMS7003;62868;52.360;30.424;2023-11-18T12:21:10;6.7;5.3;4.3
74436;PMS7003;62868;52.360;30.424;2023-11-18T12:25:34;4.3;4.3;3
74436;PMS7003;62868;52.360;30.424;2023-11-18T12:30:40;4.5;3.5;2.5
74436;PMS7003;62868;52.360;30.424;2023-11-18T12:35:41;9;5.7;4.3
74436;PMS7003;62868;52.360;30.424;2023-11-18T12:40:56;7.3;5.3;4.7
74436;PMS7003;62868;52.360;30.424;2023-11-18T12:46:11;8.7;5.3;4
74436;PMS7003;62868;52.360;30.424;2023-11-18T12:50:52;5.5;5;4
74436;PMS7003;62868;52.360;30.424;2023-11-18T12:55:32;6.7;5.3;4.3
74436;PMS7003;62868;52.360;30.424;2023-11-18T13:00:32;6;5;3.3
74436;PMS7003;62868;52.360;30.424;2023-11-18T13:05:50;5.3;4.7;3.3
74436;PMS7003;62868;52.360;30.424;2023-11-18T13:11:10;10.8;8.8;6.3
74436;PMS7003;62868;52.360;30.424;2023-11-18T13:15:42;12.3;8;5.3
74436;PMS7003;62868;52.360;30.424;2023-11-18T13:20:40;11;7.3;4.7
74436;PMS7003;62868;52.360;30.424;2023-11-18T13:25:53;10;7;4.7
74436;PMS7003;62868;52.360;30.424;2023-11-18T13:30:39;7;6.3;4.8
74436;PMS7003;62868;52.360;30.424;2023-11-18T13:36:09;7.3;7.3;5
74436;PMS7003;62868;52.360;30.424;2023-11-18T13:40:52;12;9.7;6.7
74436;PMS7003;62868;52.360;30.424;2023-11-18T13:45:40;20.7;15;10.3
74436;PMS7003;62868;52.360;30.424;2023-11-18T13:50:40;33.5;22.8;13.5
74436;PMS7003;62868;52.360;30.424;2023-11-18T13:55:52;49.7;37.7;20.3
74436;PMS7003;62868;52.360;30.424;2023-11-18T14:01:10;76.7;52.7;28
74436;PMS7003;62868;52.360;30.424;2023-11-18T14:05:44;53;38.7;23.3
74436;PMS7003;62868;52.360;30.424;2023-11-18T14:10:40;39.3;31.5;18.5
74436;PMS7003;62868;52.360;30.424;2023-11-18T14:15:40;29.3;23.3;14.7
74436;PMS7003;62868;52.360;30.424;2023-11-18T14:20:40;23.7;19.7;14
74436;PMS7003;62868;52.360;30.424;2023-11-18T14:26:10;13.3;11.3;7.3
74436;PMS7003;62868;52.360;30.424;2023-11-18T14:31:03;12;8.3;5.7
74436;PMS7003;62868;52.360;30.424;2023-11-18T14:35:52;9.3;8;5
74436;PMS7003;62868;52.360;30.424;2023-11-18T14:40:40;6.7;5.7;4
74436;PMS7003;62868;52.360;30.424;2023-11-18T14:45:34;7;5.8;4.8
74436;PMS7003;62868;52.360;30.424;2023-11-18T14:51:10;5.3;4.7;4.3
74436;PMS7003;62868;52.360;30.424;2023-11-18T14:55:41;9;7.7;5
74436;PMS7003;62868;52.360;30.424;2023-11-18T15:00:38;8.3;7.3;5.3
74436;PMS7003;62868;52.360;30.424;2023-11-18T15:05:50;7.5;6;4.3
74436;PMS7003;62868;52.360;30.424;2023-11-18T15:10:39;4.7;3.3;2.7
74436;PMS7003;62868;52.360;30.424;2023-11-18T15:16:10;4;3.3;2
74436;PMS7003;62868;52.360;30.424;2023-11-18T15:21:02;5;4.3;2.7
74436;PMS7003;62868;52.360;30.424;2023-11-18T15:25:52;6;5.5;3.8
74436;PMS7003;62868;52.360;30.424;2023-11-18T15:30:35;6.3;5.7;4.7
74436;PMS7003;62868;52.360;30.424;2023-11-18T15:35:58;4.3;3.7;2.7
74436;PMS7003;62868;52.360;30.424;2023-11-18T15:41:12;3.7;2.7;2.3
74436;PMS7003;62868;52.360;30.424;2023-11-18T15:45:42;4.3;3;1.3
74436;PMS7003;62868;52.360;30.424;2023-11-18T15:50:34;2.7;1.7;0.7
74436;PMS7003;62868;52.360;30.424;2023-11-18T15:55:50;3;2.3;1.3
74436;PMS7003;62868;52.360;30.424;2023-11-18T16:00:32;5;3.3;2.3
74436;PMS7003;62868;52.360;30.424;2023-11-18T16:06:10;3;2;1.3
74436;PMS7003;62868;52.360;30.424;2023-11-18T16:10:44;2;1;0.7
74436;PMS7003;62868;52.360;30.424;2023-11-18T16:15:32;3.3;1.7;1.3
74436;PMS7003;62868;52.360;30.424;2023-11-18T16:20:32;2.3;1.5;1
74436;PMS7003;62868;52.360;30.424;2023-11-18T16:25:44;2;1.7;1.3
74436;PMS7003;62868;52.360;30.424;2023-11-18T16:31:10;3.3;2.7;1.3
74436;PMS7003;62868;52.360;30.424;2023-11-18T16:35:44;3.3;1.7;1.3
74436;PMS7003;62868;52.360;30.424;2023-11-18T16:40:52;2.3;0.8;0.8
74436;PMS7003;62868;52.360;30.424;2023-11-18T16:45:48;3.3;2.3;1.3
74436;PMS7003;62868;52.360;30.424;2023-11-18T16:51:03;1;0.7;0.3
74436;PMS7003;62868;52.360;30.424;2023-11-18T16:56:10;1.3;1;0.7
74436;PMS7003;62868;52.360;30.424;2023-11-18T17:01:00;1.5;0.8;0.5
74436;PMS7003;62868;52.360;30.424;2023-11-18T17:05:34;0.7;0.3;0.3
74436;PMS7003;62868;52.360;30.424;2023-11-18T17:10:34;1;0.3;0.3
74436;PMS7003;62868;52.360;30.424;2023-11-18T17:15:44;1.7;1.3;0.7
74436;PMS7003;62868;52.360;30.424;2023-11-18T17:21:10;1;0.8;0.8
74436;PMS7003;62868;52.360;30.424;2023-11-18T17:25:44;1.7;0.7;0
74436;PMS7003;62868;52.360;30.424;2023-11-18T17:30:56;1;0.7;0
74436;PMS7003;62868;52.360;30.424;2023-11-18T17:35:32;0.7;0.3;0.3
74436;PMS7003;62868;52.360;30.424;2023-11-18T17:41:09;0.5;0.5;0.3
74436;PMS7003;62868;52.360;30.424;2023-11-18T17:46:10;1;0.3;0
74436;PMS7003;62868;52.360;30.424;2023-11-18T17:50:34;0;0;0
74436;PMS7003;62868;52.360;30.424;2023-11-18T17:55:32;0;0;0
74436;PMS7003;62868;52.360;30.424;2023-11-18T18:00:32;0.5;0.3;0
74436;PMS7003;62868;52.360;30.424;2023-11-18T18:05:40;1.3;0.3;0.3
74436;PMS7003;62868;52.360;30.424;2023-11-18T18:11:10;0.7;0.7;0.3
74436;PMS7003;62868;52.360;30.424;2023-11-18T18:15:52;1.3;1;0.5
74436;PMS7003;62868;52.360;30.424;2023-11-18T18:20:52;2.3;1;0.7
74436;PMS7003;62868;52.360;30.424;2023-11-18T18:25:41;1;0.7;0.7
74436;PMS7003;62868;52.360;30.424;2023-11-18T18:31:00;1;0.3;0.3
74436;PMS7003;62868;52.360;30.424;2023-11-18T18:36:10;0.8;0.5;0.3
74436;PMS7003;62868;52.360;30.424;2023-11-18T18:41:09;1.3;0.3;0
74436;PMS7003;62868;52.360;30.424;2023-11-18T18:45:33;1.7;1.3;0.7
74436;PMS7003;62868;52.360;30.424;2023-11-18T18:50:38;2.7;1;1
74436;PMS7003;62868;52.360;30.424;2023-11-18T18:55:43;0.5;0.3;0.3
74436;PMS7003;62868;52.360;30.424;2023-11-18T19:01:06;0.3;0.3;0
74436;PMS7003;62868;52.360;30.424;2023-11-18T19:06:03;0.7;0.3;0.3
74436;PMS7003;62868;52.360;30.424;2023-11-18T19:10:32;0.7;0.7;0.3
74436;PMS7003;62868;52.360;30.424;2023-11-18T19:15:50;2;1;0.5
74436;PMS7003;62868;52.360;30.424;2023-11-18T19:21:03;2.7;0.7;0.3
74436;PMS7003;62868;52.360;30.424;2023-11-18T19:26:10;0;0;0
74436;PMS7003;62868;52.360;30.424;2023-11-18T19:30:44;0.3;0.3;0
74436;PMS7003;62868;52.360;30.424;2023-11-18T19:35:53;0.5;0.5;0.3
74436;PMS7003;62868;52.360;30.424;2023-11-18T19:40:38;0.7;0;0
74436;PMS7003;62868;52.360;30.424;2023-11-18T19:45:50;0.7;0;0
74436;PMS7003;62868;52.360;30.424;2023-11-18T19:51:03;1;0.3;0.3
74436;PMS7003;62868;52.360;30.424;2023-11-18T19:55:35;0.5;0.3;0
74436;PMS7003;62868;52.360;30.424;2023-11-18T20:00:40;0.7;0;0
74436;PMS7003;62868;52.360;30.424;2023-11-18T20:05:51;0.7;0;0
74436;PMS7003;62868;52.360;30.424;2023-11-18T20:11:03;0.8;0.3;0
74436;PMS7003;62868;52.360;30.424;2023-11-18T20:16:10;0.3;0.3;0.3
74436;PMS7003;62868;52.360;30.424;2023-11-18T20:20:52;1.3;0.7;0.7
74436;PMS7003;62868;52.360;30.424;2023-11-18T20:25:35;2;1;0.7
74436;PMS7003;62868;52.360;30.424;2023-11-18T20:30:33;0;0;0
74436;PMS7003;62868;52.360;30.424;2023-11-18T20:36:03;0.3;0.3;0
74436;PMS7003;62868;52.360;30.424;2023-11-18T20:41:11;0.3;0;0
74436;PMS7003;62868;52.360;30.424;2023-11-18T20:45:43;0;0;0
74436;PMS7003;62868;52.360;30.424;2023-11-18T20:50:41;0;0;0
74436;PMS7003;62868;52.360;30.424;2023-11-18T20:55:59;0.3;0.3;0
74436;PMS7003;62868;52.360;30.424;2023-11-18T21:01:05;0;0;0
74436;PMS7003;62868;52.360;30.424;2023-11-18T21:06:03;0.3;0;0
74436;PMS7003;62868;52.360;30.424;2023-11-18T21:10:41;0.3;0;0
74436;PMS7003;62868;52.360;30.424;2023-11-18T21:15:51;0.3;0;0
74436;PMS7003;62868;52.360;30.424;2023-11-18T21:20:33;1;0;0
74436;PMS7003;62868;52.360;30.424;2023-11-18T21:26:11;0.3;0;0
74436;PMS7003;62868;52.360;30.424;2023-11-18T21:31:03;0.3;0;0
74436;PMS7003;62868;52.360;30.424;2023-11-18T21:35:39;0;0;0
74436;PMS7003;62868;52.360;30.424;2023-11-18T21:40:41;0.7;0;0
74436;PMS7003;62868;52.360;30.424;2023-11-18T21:45:59;0;0;0
74436;PMS7003;62868;52.360;30.424;2023-11-18T21:51:11;0;0;0
74436;PMS7003;62868;52.360;30.424;2023-11-18T21:55:35;0;0;0
74436;PMS7003;62868;52.360;30.424;2023-11-18T22:00:35;1;0;0
74436;PMS7003;62868;52.360;30.424;2023-11-18T22:05:33;0.3;0;0
74436;PMS7003;62868;52.360;30.424;2023-11-18T22:10:33;1.3;1;0.3
74436;PMS7003;62868;52.360;30.424;2023-11-18T22:16:11;1;1;1
74436;PMS7003;62868;52.360;30.424;2023-11-18T22:21:01;2;0.7;0
74436;PMS7003;62868;52.360;30.424;2023-11-18T22:25:59;0.8;0.8;0.3
74436;PMS7003;62868;52.360;30.424;2023-11-18T22:30:35;0.3;0;0
74436;PMS7003;62868;52.360;30.424;2023-11-18T22:35:59;0;0;0
74436;PMS7003;62868;52.360;30.424;2023-11-18T22:41:11;0;0;0
74436;PMS7003;62868;52.360;30.424;2023-11-18T22:45:35;0.8;0.3;0
74436;PMS7003;62868;52.360;30.424;2023-11-18T22:50:35;0;0;0
74436;PMS7003;62868;52.360;30.424;2023-11-18T22:55:33;0;0;0
74436;PMS7003;62868;52.360;30.424;2023-11-18T23:00:35;0.3;0;0
74436;PMS7003;62868;52.360;30.424;2023-11-18T23:06:09;0.3;0;0
74436;PMS7003;62868;52.360;30.424;2023-11-18T23:11:03;0;0;0
74436;PMS7003;62868;52.360;30.424;2023-11-18T23:15:59;0;0;0
74436;PMS7003;62868;52.360;30.424;2023-11-18T23:20:41;0.3;0;0
74436;PMS7003;62868;52.360;30.424;2023-11-18T23:25:59;0.3;0;0
74436;PMS7003;62868;52.360;30.424;2023-11-18T23:31:13;0;0;0
74436;PMS7003;62868;52.360;30.424;2023-11-18T23:35:33;0;0;0
74436;PMS7003;62868;52.360;30.424;2023-11-18T23:40:33;0;0;0
74436;PMS7003;62868;52.360;30.424;2023-11-18T23:45:33;0.3;0;0
74436;PMS7003;62868;52.360;30.424;2023-11-18T23:50:43;0.7;0;0
74436;PMS7003;62868;52.360;30.424;2023-11-18T23:56:13;0.7;0;0
